Time;durP1;ratioP1;P1;durP2;ratioP2;P2;SDS_P1;SDS_P2;PMS_P1;PMS_P2;Temp;Humidity;BMP_temperature;BMP_pressure;BME280_temperature;BME280_humidity;BME280_pressure;Samples;Min_cycle;Max_cycle;Signal;HPM_P1;HPM_P2
2022/01/03 00:02:07;;;;;;;60.50;29.43;;;4.80;99.90;;;2.66;100.00;100026.72;10355753;28;96880;-78
2022/01/03 00:07:11;;;;;;;64.33;28.77;;;4.70;99.90;;;2.60;100.00;100032.47;10383267;28;98516;-78
2022/01/03 00:12:14;;;;;;;56.60;28.43;;;4.70;99.90;;;2.55;100.00;100031.16;10370528;28;97611;-78
2022/01/03 00:17:20;;;;;;;57.20;28.10;;;4.70;99.90;;;2.45;100.00;100017.06;10371409;27;99203;-78
2022/01/03 00:22:23;;;;;;;58.27;29.60;;;4.60;99.90;;;2.36;100.00;100021.28;10379893;28;96746;-78
2022/01/03 00:27:35;;;;;;;58.33;27.53;;;4.50;99.90;;;2.28;100.00;100027.13;10369993;28;96596;-78
2022/01/03 00:32:43;;;;;;;42.33;21.40;;;4.50;99.90;;;2.25;100.00;100016.03;10362481;28;97207;-78
2022/01/03 00:37:47;;;;;;;47.60;23.27;;;4.40;99.90;;;2.23;100.00;100003.03;10367633;28;96835;-78
2022/01/03 00:42:51;;;;;;;48.23;22.57;;;4.40;99.90;;;2.19;100.00;99985.88;10357449;28;98431;-78
2022/01/03 00:47:55;;;;;;;49.47;23.63;;;4.30;99.90;;;2.15;100.00;99992.28;10380535;28;98459;-78
2022/01/03 00:52:58;;;;;;;64.27;21.17;;;4.30;99.90;;;2.12;100.00;100005.66;10377634;28;98289;-78
2022/01/03 00:58:08;;;;;;;79.50;22.97;;;4.30;99.90;;;2.11;100.00;99993.50;10373376;28;96809;-78
2022/01/03 01:03:22;;;;;;;53.53;18.60;;;4.20;99.90;;;2.08;100.00;99999.81;10365421;28;97072;-78
2022/01/03 01:08:26;;;;;;;73.83;24.00;;;4.20;99.90;;;2.05;100.00;100004.47;10368804;28;97077;-77
2022/01/03 01:13:36;;;;;;;58.50;19.90;;;4.20;99.90;;;2.01;100.00;99993.38;10353164;28;98570;-77
2022/01/03 01:18:44;;;;;;;52.00;21.47;;;4.10;99.90;;;1.93;100.00;99989.69;10366581;28;98405;-77
2022/01/03 01:23:50;;;;;;;41.03;18.83;;;4.10;99.90;;;1.81;100.00;99992.28;10376322;28;97056;-77
2022/01/03 01:28:53;;;;;;;61.50;22.50;;;4.00;99.90;;;1.71;100.00;99991.31;10396589;27;96636;-77
2022/01/03 01:33:59;;;;;;;54.40;22.93;;;3.90;99.90;;;1.65;100.00;99976.06;10389919;28;97263;-77
2022/01/03 01:39:08;;;;;;;57.57;23.83;;;3.80;99.90;;;1.66;100.00;99985.56;10379800;28;97227;-77
2022/01/03 01:44:12;;;;;;;48.30;22.23;;;3.80;99.90;;;1.74;100.00;99970.13;10374182;28;98573;-77
2022/01/03 01:49:18;;;;;;;89.20;24.77;;;3.80;99.90;;;1.87;100.00;99977.88;10368780;28;97426;-77
2022/01/03 01:54:37;;;;;;;75.70;23.77;;;3.90;99.90;;;1.98;100.00;99980.53;10392467;28;96910;-78
2022/01/03 02:00:01;;;;;;;62.20;22.17;;;4.00;99.90;;;2.10;100.00;99991.84;10376879;27;97077;-78
2022/01/03 02:05:18;;;;;;;69.80;21.30;;;4.10;99.90;;;2.18;100.00;100004.34;10367379;28;97507;-78
2022/01/03 02:10:29;;;;;;;63.17;22.60;;;4.20;99.90;;;2.26;100.00;100001.94;10391538;27;96751;-78
2022/01/03 02:15:34;;;;;;;76.72;23.30;;;4.30;99.90;;;2.32;100.00;99998.84;10367639;28;98737;-78
2022/01/03 02:20:37;;;;;;;95.77;25.27;;;4.30;99.90;;;2.36;100.00;99998.50;10377331;27;97944;-78
2022/01/03 02:25:40;;;;;;;90.73;25.17;;;4.30;99.90;;;2.39;100.00;99982.50;10383911;28;98392;-78
2022/01/03 02:30:43;;;;;;;103.27;24.80;;;4.40;99.90;;;2.44;100.00;99987.41;10390418;28;97397;-78
2022/01/03 02:35:46;;;;;;;51.47;18.23;;;4.40;99.90;;;2.48;100.00;99993.25;10390902;28;96610;-78
2022/01/03 02:40:50;;;;;;;80.90;20.93;;;4.50;99.90;;;2.53;100.00;99976.19;10382371;28;97014;-78
2022/01/03 02:45:53;;;;;;;73.93;21.10;;;4.50;99.90;;;2.58;100.00;99986.28;10380511;28;98675;-79
2022/01/03 02:50:56;;;;;;;73.53;20.07;;;4.50;99.90;;;2.64;100.00;99986.66;10389579;28;99197;-78
2022/01/03 02:55:59;;;;;;;78.37;21.60;;;4.60;99.90;;;2.68;100.00;99969.72;10364390;28;97741;-78
2022/01/03 03:01:04;;;;;;;92.23;21.87;;;4.70;99.90;;;2.74;100.00;99954.44;10367071;28;97240;-79
2022/01/03 03:06:07;;;;;;;76.63;18.23;;;4.70;99.90;;;2.76;100.00;99945.50;10372935;28;97016;-79
2022/01/03 03:11:10;;;;;;;70.83;21.03;;;4.70;99.90;;;2.78;100.00;99937.50;10381040;27;96690;-79
2022/01/03 03:16:13;;;;;;;40.97;16.90;;;4.80;99.90;;;2.77;100.00;99923.53;10391857;28;96614;-79
2022/01/03 03:21:16;;;;;;;52.00;21.73;;;4.70;99.90;;;2.75;100.00;99930.69;10370259;28;96721;-79
2022/01/03 03:26:19;;;;;;;57.60;21.17;;;4.70;99.90;;;2.71;100.00;99926.66;10378082;28;97430;-79
2022/01/03 03:31:24;;;;;;;50.13;20.00;;;4.70;99.90;;;2.70;100.00;99917.13;10371926;28;96589;-79
2022/01/03 03:36:28;;;;;;;69.27;21.60;;;4.70;99.90;;;2.65;100.00;99900.94;10363068;28;96912;-79
2022/01/03 03:41:31;;;;;;;47.10;20.33;;;4.70;99.90;;;2.61;100.00;99913.44;10375910;28;97167;-78
2022/01/03 03:46:33;;;;;;;51.20;18.63;;;4.60;99.90;;;2.58;100.00;99912.84;10364905;28;96753;-78
2022/01/03 03:51:38;;;;;;;54.53;20.73;;;4.60;99.90;;;2.57;100.00;99903.31;10392063;27;96718;-78
2022/01/03 03:56:41;;;;;;;47.27;19.27;;;4.60;99.90;;;2.57;100.00;99911.19;10366526;28;97798;-78
2022/01/03 04:01:47;;;;;;;61.03;22.50;;;4.60;99.90;;;2.57;100.00;99906.78;10372302;28;96936;-78
2022/01/03 04:06:53;;;;;;;45.53;21.10;;;4.60;99.90;;;2.58;100.00;99894.47;10387487;28;98223;-78
2022/01/03 04:11:57;;;;;;;53.47;21.83;;;4.60;99.90;;;2.60;100.00;99900.47;10372253;28;96701;-78
2022/01/03 04:17:02;;;;;;;58.80;23.00;;;4.60;99.90;;;2.61;100.00;99900.31;10366278;28;98787;-78
2022/01/03 04:22:08;;;;;;;50.27;20.97;;;4.60;99.90;;;2.61;100.00;99904.75;10396109;28;97150;-78
2022/01/03 04:27:11;;;;;;;42.37;18.07;;;4.60;99.90;;;2.59;100.00;99899.63;10390134;28;98264;-77
2022/01/03 04:32:14;;;;;;;54.83;22.67;;;4.60;99.90;;;2.57;100.00;99905.94;10371146;28;98313;-77
2022/01/03 04:37:17;;;;;;;54.40;21.67;;;4.60;99.90;;;2.58;100.00;99887.47;10389689;28;96729;-77
2022/01/03 04:42:20;;;;;;;63.63;25.13;;;4.60;99.90;;;2.60;100.00;99889.97;10364283;28;96667;-77
2022/01/03 04:47:23;;;;;;;53.40;22.07;;;4.60;99.90;;;2.63;100.00;99894.94;10382867;27;96677;-77
2022/01/03 04:52:26;;;;;;;32.53;17.70;;;4.60;99.90;;;2.62;100.00;99904.63;10381948;28;97440;-78
2022/01/03 04:57:29;;;;;;;57.77;24.07;;;4.60;99.90;;;2.61;100.00;99907.38;10388063;27;98043;-77
2022/01/03 05:02:32;;;;;;;69.43;25.60;;;4.60;99.90;;;2.60;100.00;99903.09;10366435;28;98437;-77
2022/01/03 05:07:35;;;;;;;48.37;20.40;;;4.60;99.90;;;2.59;100.00;99898.81;10378841;28;98503;-77
2022/01/03 05:12:38;;;;;;;43.93;17.90;;;4.60;99.90;;;2.75;100.00;99872.13;10391065;28;97020;-77
2022/01/03 05:17:41;;;;;;;31.67;15.03;;;4.70;99.90;;;2.99;100.00;99877.16;10375251;28;96929;-77
2022/01/03 05:22:44;;;;;;;30.33;13.70;;;4.80;99.90;;;3.63;100.00;99869.94;10361193;28;98831;-77
2022/01/03 05:27:48;;;;;;;28.27;13.10;;;5.30;99.90;;;4.18;100.00;99864.31;10378669;27;96653;-77
2022/01/03 05:32:54;;;;;;;26.20;12.37;;;5.80;99.90;;;4.80;100.00;99853.44;10400765;28;97412;-77
2022/01/03 05:37:57;;;;;;;23.17;12.23;;;6.40;99.90;;;5.29;100.00;99854.19;10388648;28;97729;-77
2022/01/03 05:43:00;;;;;;;19.07;9.90;;;6.90;99.90;;;5.66;100.00;99847.28;10370544;28;98166;-77
2022/01/03 05:48:06;;;;;;;20.40;11.30;;;7.30;99.90;;;5.92;100.00;99840.38;10354297;28;96684;-77
2022/01/03 05:53:09;;;;;;;12.20;6.73;;;7.60;99.90;;;5.99;100.00;99841.44;10402374;28;96924;-77
2022/01/03 05:58:15;;;;;;;9.00;5.20;;;7.80;99.90;;;6.45;100.00;99837.00;10375923;28;98077;-78
2022/01/03 06:03:21;;;;;;;9.17;5.40;;;8.10;99.90;;;6.86;97.99;99832.94;10377666;28;96774;-78
2022/01/03 06:08:25;;;;;;;11.63;6.80;;;8.50;99.90;;;7.04;95.31;99842.66;10374401;28;97847;-78
2022/01/03 06:13:28;;;;;;;11.93;7.70;;;8.80;99.90;;;7.09;93.52;99824.53;10379764;28;97085;-79
2022/01/03 06:18:31;;;;;;;10.17;5.50;;;8.90;99.90;;;7.13;91.10;99837.25;10366173;28;97013;-78
2022/01/03 06:23:34;;;;;;;8.70;3.80;;;9.00;99.90;;;7.47;89.27;99845.25;10368295;28;98539;-77
2022/01/03 06:28:37;;;;;;;4.23;2.20;;;9.20;99.90;;;7.99;85.39;99823.16;10368749;27;98794;-76
2022/01/03 06:33:41;;;;;;;3.60;1.70;;;9.70;99.90;;;8.53;83.15;99860.72;10385311;28;96559;-77
2022/01/03 06:38:45;;;;;;;4.83;2.20;;;10.20;99.90;;;9.16;78.33;99857.44;10379289;28;98427;-76
2022/01/03 06:43:48;;;;;;;3.27;1.70;;;10.70;99.90;;;9.64;73.63;99876.94;10388919;28;96594;-77
2022/01/03 06:48:53;;;;;;;3.90;1.87;;;11.20;99.90;;;10.04;68.40;99877.81;10382509;28;96913;-77
2022/01/03 06:53:58;;;;;;;4.13;1.83;;;11.60;99.90;;;10.39;65.83;99877.34;10379167;28;96690;-77
2022/01/03 06:59:02;;;;;;;3.27;1.40;;;12.00;99.90;;;10.71;63.92;99883.44;10399743;27;96658;-77
2022/01/03 07:04:05;;;;;;;2.93;1.37;;;12.30;99.00;;;11.04;61.40;99872.59;10405503;27;97623;-77
2022/01/03 07:09:08;;;;;;;2.80;1.10;;;12.60;96.00;;;11.29;60.92;99883.84;10386304;27;98245;-77
2022/01/03 07:19:26;;;;;;;2.57;0.87;;;13.10;92.60;;;11.66;57.51;99886.47;10382357;28;96571;-77
2022/01/03 07:24:31;;;;;;;2.00;0.90;;;13.20;90.70;;;11.79;57.78;99881.31;10364136;28;98300;-78
2022/01/03 07:29:36;;;;;;;2.17;1.20;;;13.40;90.30;;;11.75;57.48;99860.56;10373107;27;96929;-78
2022/01/03 07:34:39;;;;;;;4.87;1.57;;;13.40;90.00;;;11.70;56.94;99878.94;10374020;28;97073;-79
2022/01/03 07:39:42;;;;;;;5.27;1.20;;;13.40;89.20;;;11.64;57.32;99871.69;10370950;28;96937;-79
2022/01/03 07:44:45;;;;;;;2.77;1.33;;;13.30;87.20;;;11.60;57.25;99881.88;10383750;28;97053;-79
2022/01/03 07:49:48;;;;;;;2.40;1.20;;;13.30;87.60;;;11.54;58.02;99869.28;10375888;28;97098;-79
2022/01/03 07:54:52;;;;;;;4.07;1.10;;;13.20;88.60;;;11.52;57.61;99869.47;10384205;28;98005;-79
2022/01/03 07:59:55;;;;;;;1.63;0.83;;;13.20;88.00;;;11.63;56.52;99872.69;10386807;28;96672;-79
2022/01/03 08:04:58;;;;;;;4.03;1.30;;;13.30;85.80;;;11.82;55.53;99879.34;10371552;28;98047;-78
2022/01/03 08:10:07;;;;;;;12.57;4.37;;;13.40;83.80;;;11.98;54.76;99869.31;10371406;28;96954;-79
2022/01/03 08:15:10;;;;;;;19.57;8.90;;;13.60;82.20;;;12.08;54.67;99869.03;10367883;28;98091;-79
2022/01/03 08:20:13;;;;;;;4.03;1.50;;;13.60;81.50;;;12.09;54.99;99901.84;10368596;28;98034;-77
2022/01/03 08:25:16;;;;;;;6.87;4.93;;;13.70;81.30;;;12.11;54.63;99863.34;10383449;28;96857;-77
2022/01/03 08:30:21;;;;;;;1.83;0.70;;;13.70;80.20;;;12.13;54.36;99871.97;10383787;28;98590;-79
2022/01/03 08:35:27;;;;;;;2.90;0.83;;;13.70;80.10;;;12.12;54.59;99890.81;10387481;28;96733;-79
2022/01/03 08:40:33;;;;;;;3.23;1.23;;;13.70;80.00;;;12.12;54.41;99891.66;10395515;28;97429;-79
2022/01/03 08:45:37;;;;;;;4.60;1.07;;;13.70;79.40;;;12.08;54.71;99890.34;10372553;28;96603;-80
2022/01/03 08:50:42;;;;;;;2.47;1.10;;;13.70;79.70;;;12.00;54.98;99874.47;10394352;27;98029;-77
2022/01/03 08:55:47;;;;;;;4.47;1.23;;;13.60;80.10;;;11.91;55.97;99916.34;10394140;28;98203;-77
2022/01/03 09:00:51;;;;;;;1.53;0.90;;;13.50;80.60;;;11.80;56.38;99914.09;10378030;28;97100;-78
2022/01/03 09:05:54;;;;;;;2.10;1.00;;;13.50;81.50;;;11.68;56.32;99880.94;10391832;27;97376;-78
2022/01/03 09:10:58;;;;;;;2.70;0.83;;;13.30;81.70;;;11.57;56.81;99860.09;10392974;28;97164;-79
2022/01/03 09:16:04;;;;;;;3.07;1.30;;;13.30;82.10;;;11.45;57.04;99859.72;10390840;28;96877;-78
2022/01/03 09:21:07;;;;;;;3.03;1.07;;;13.10;81.80;;;11.34;56.56;99868.19;10378300;28;97561;-78
2022/01/03 09:31:38;;;;;;;3.47;0.67;;;12.90;82.10;;;11.15;56.63;99869.47;10390061;28;96806;-78
2022/01/03 09:36:42;;;;;;;2.63;0.63;;;12.80;81.20;;;11.06;57.31;99878.56;10388449;28;97370;-77
2022/01/03 09:42:08;;;;;;;3.90;1.87;;;12.70;82.10;;;10.97;57.17;99857.34;10397337;28;98188;-77
2022/01/03 09:47:13;;;;;;;2.67;0.70;;;12.60;81.40;;;10.91;57.46;99838.59;10388887;28;98286;-77
2022/01/03 09:52:23;;;;;;;1.63;0.70;;;12.60;82.40;;;10.83;57.64;99820.91;10381115;27;97305;-77
2022/01/03 09:57:28;;;;;;;4.20;0.90;;;12.50;82.40;;;10.79;57.89;99805.47;10378678;28;97460;-77
2022/01/03 10:02:32;;;;;;;2.73;0.77;;;12.40;83.10;;;10.74;58.49;99807.88;10387331;28;96955;-77
2022/01/03 10:07:38;;;;;;;2.93;1.00;;;12.40;83.80;;;10.72;58.74;99808.03;10387785;28;97388;-77
2022/01/03 10:12:42;;;;;;;1.97;0.80;;;12.40;84.20;;;10.70;58.85;99796.75;10372914;28;99092;-77
2022/01/03 10:17:47;;;;;;;2.27;0.50;;;12.40;84.80;;;10.69;59.15;99797.78;10391554;28;97203;-77
2022/01/03 10:23:08;;;;;;;1.67;0.73;;;12.30;85.20;;;10.70;59.16;99815.38;10385208;28;97895;-77
2022/01/03 10:28:25;;;;;;;1.80;0.40;;;12.30;85.00;;;10.74;59.04;99811.34;10377716;28;96814;-77
2022/01/03 10:33:28;;;;;;;3.07;0.77;;;12.40;85.10;;;10.83;58.11;99798.81;10374538;28;98491;-77
2022/01/03 10:38:36;;;;;;;1.40;0.47;;;12.40;84.50;;;10.91;58.05;99778.28;10398023;28;98136;-77
2022/01/03 10:43:39;;;;;;;0.70;0.40;;;12.50;84.50;;;10.99;57.02;99778.22;10370881;28;97753;-77
2022/01/03 10:48:52;;;;;;;4.03;0.50;;;12.60;83.10;;;11.04;57.28;99767.06;10385420;28;97550;-77
2022/01/03 10:53:57;;;;;;;1.20;1.00;;;12.60;83.00;;;11.01;57.46;99747.97;10392725;28;96645;-77
2022/01/03 10:59:21;;;;;;;2.03;0.77;;;12.60;82.80;;;10.96;57.61;99736.03;10389856;28;98277;-77
2022/01/03 11:04:27;;;;;;;2.20;0.70;;;12.60;83.00;;;10.88;58.05;99746.75;10381924;27;99141;-77
2022/01/03 11:14:52;;;;;;;1.87;0.90;;;12.50;84.20;;;10.86;58.85;99740.00;10384768;28;96614;-77
2022/01/03 11:20:00;;;;;;;1.67;0.60;;;12.50;84.80;;;10.86;59.36;99745.31;10367450;28;98604;-77
2022/01/03 11:25:05;;;;;;;1.20;0.40;;;12.50;85.30;;;10.89;59.30;99737.78;10380823;27;97349;-77
2022/01/03 11:30:11;;;;;;;2.00;0.40;;;12.50;85.70;;;10.95;59.00;99737.06;10376926;28;97102;-78
2022/01/03 11:35:15;;;;;;;2.80;0.80;;;12.50;85.60;;;10.99;58.98;99738.34;10378451;28;97865;-77
2022/01/03 11:40:21;;;;;;;2.17;0.60;;;12.60;85.70;;;10.97;59.08;99727.09;10398234;27;98361;-77
2022/01/03 11:45:25;;;;;;;1.87;0.67;;;12.50;85.40;;;10.96;58.76;99721.91;10383565;28;98433;-76
2022/01/03 11:50:30;;;;;;;2.60;0.90;;;12.50;84.70;;;10.95;59.17;99734.38;10369039;28;97117;-75
2022/01/03 11:55:35;;;;;;;3.60;1.30;;;12.50;85.10;;;10.94;58.70;99740.72;10373030;28;96853;-76
2022/01/03 12:06:36;;;;;;;3.30;0.87;;;12.50;84.70;;;10.90;57.80;99746.56;10265903;28;97881;-76
2022/01/03 12:11:57;;;;;;;1.00;0.57;;;12.50;83.70;;;10.82;57.96;99734.19;10377645;28;97577;-76
2022/01/03 12:17:05;;;;;;;;;;;12.40;83.30;;;10.78;58.31;99751.50;10385639;28;97196;-77
2022/01/03 12:22:11;;;;;;;2.37;0.50;;;12.40;83.80;;;10.69;58.63;99745.44;10382358;28;98954;-76
2022/01/03 12:27:14;;;;;;;3.73;0.77;;;12.30;84.30;;;10.62;59.49;99772.91;10381875;27;98937;-77
2022/01/03 12:32:17;;;;;;;1.63;0.40;;;12.30;85.20;;;10.58;59.67;99758.34;10390186;28;99130;-77
2022/01/03 12:37:23;;;;;;;2.70;0.70;;;12.20;85.60;;;10.52;60.05;99748.41;10374252;28;100289;-77
2022/01/03 12:47:51;;;;;;;2.73;0.83;;;12.10;87.10;;;10.49;61.14;99760.22;10398609;28;96679;-78
2022/01/03 12:52:58;;;;;;;1.50;0.83;;;12.10;88.10;;;10.49;61.56;99748.75;10382036;28;96780;-77
2022/01/03 12:58:01;;;;;;;3.07;0.90;;;12.10;88.80;;;10.54;61.76;99762.34;10383939;28;96641;-77
2022/01/03 13:03:22;;;;;;;4.00;1.00;;;12.10;89.50;;;10.59;62.15;99749.34;10386499;28;97119;-77
2022/01/03 13:08:26;;;;;;;2.43;1.00;;;12.20;90.10;;;10.59;62.17;99760.81;10381156;28;97110;-77
2022/01/03 13:13:29;;;;;;;2.93;1.00;;;12.20;90.30;;;10.56;62.61;99765.66;10390596;28;97552;-78
2022/01/03 13:18:32;;;;;;;6.27;1.60;;;12.20;90.60;;;10.48;63.28;99771.03;10380467;28;98590;-78
2022/01/03 13:23:35;;;;;;;4.60;1.47;;;12.20;91.00;;;10.41;63.75;99773.56;10387698;27;98478;-78
2022/01/03 13:28:46;;;;;;;3.13;1.00;;;12.10;91.30;;;10.33;64.19;99771.78;10387519;28;98031;-78
2022/01/03 13:34:03;;;;;;;4.37;0.93;;;12.00;91.70;;;10.35;64.44;99777.75;10390905;28;97561;-78
2022/01/03 13:39:09;;;;;;;4.80;1.07;;;12.00;92.20;;;10.43;66.49;99776.84;10391930;28;96652;-78
2022/01/03 13:45:03;;;;;;;3.97;2.37;;;12.10;93.30;;;10.32;67.95;99770.16;10379653;28;97632;-78
2022/01/03 13:50:12;;;;;;;3.93;1.97;;;12.00;94.80;;;10.12;68.20;99785.66;10383202;28;97218;-77
2022/01/03 13:55:23;;;;;;;15.43;11.03;;;11.90;95.10;;;10.00;68.77;99797.66;10388010;28;96934;-78
2022/01/03 14:00:26;;;;;;;4.50;1.70;;;11.80;96.00;;;9.91;68.72;99798.72;10382770;27;97254;-78
2022/01/03 14:05:31;;;;;;;4.53;2.40;;;11.70;96.20;;;9.88;67.83;99799.06;10370634;28;97355;-77
2022/01/03 14:10:53;;;;;;;33.87;19.23;;;11.60;96.10;;;9.83;67.15;99802.22;10384076;28;98331;-76
2022/01/03 14:16:15;;;;;;;5.13;2.10;;;11.60;95.70;;;9.79;66.11;99808.06;10380842;28;98424;-77
2022/01/03 14:21:30;;;;;;;;;;;11.60;94.20;;;9.87;64.54;99822.13;10391717;28;98742;-80
2022/01/03 14:26:34;;;;;;;1.90;0.80;;;11.60;94.30;;;9.87;63.53;99816.81;10388131;28;98699;-79
2022/01/03 14:31:48;;;;;;;3.60;0.73;;;11.60;93.60;;;9.87;63.68;99819.47;10385728;28;97294;-77
2022/01/03 14:36:56;;;;;;;3.23;1.00;;;11.60;93.00;;;9.87;63.21;99821.28;10376770;28;97123;-79
2022/01/03 14:42:07;;;;;;;3.37;1.00;;;11.60;92.40;;;9.88;62.64;99831.72;10379046;28;98144;-79
2022/01/03 14:47:12;;;;;;;1.80;0.60;;;11.60;92.30;;;9.98;62.38;99831.53;10386051;28;98760;-79
2022/01/03 14:52:15;;;;;;;0.73;0.30;;;11.60;92.00;;;10.07;62.31;99824.34;10386212;28;97930;-80
2022/01/03 14:57:27;;;;;;;1.57;0.70;;;11.70;91.90;;;10.10;62.40;99814.22;10380350;28;97996;-79
2022/01/03 15:02:30;;;;;;;4.57;1.33;;;11.80;92.10;;;10.08;62.89;99832.16;10384366;28;96857;-80
2022/01/03 15:07:36;;;;;;;2.43;0.60;;;11.70;92.20;;;10.02;63.39;99838.16;10388852;28;98477;-80
2022/01/03 15:12:40;;;;;;;1.87;0.60;;;11.70;92.50;;;9.93;64.02;99840.00;10379140;28;97995;-77
2022/01/03 15:17:43;;;;;;;5.17;2.43;;;11.60;92.80;;;9.79;64.45;99830.13;10381527;28;100055;-77
2022/01/03 15:22:46;;;;;;;4.03;0.97;;;11.50;93.00;;;9.65;64.72;99842.28;10367667;28;97244;-77
2022/01/03 15:27:49;;;;;;;2.73;0.80;;;11.40;93.20;;;9.54;64.52;99829.38;10361349;28;97275;-76
2022/01/03 15:32:55;;;;;;;6.13;2.03;;;11.30;93.30;;;9.39;65.08;99831.88;10392802;28;96869;-77
2022/01/03 15:37:58;;;;;;;3.20;1.30;;;11.20;93.40;;;9.25;65.42;99834.41;10387875;28;97054;-77
2022/01/03 15:43:01;;;;;;;6.97;3.23;;;11.10;93.60;;;9.22;66.13;99830.25;10384931;28;96632;-77
2022/01/03 15:48:05;;;;;;;4.97;2.20;;;11.00;94.00;;;9.22;66.37;99824.13;10376899;28;96552;-78
2022/01/03 15:53:09;;;;;;;9.30;4.63;;;11.00;94.40;;;9.22;66.67;99834.72;10392354;28;96951;-78
2022/01/03 15:58:12;;;;;;;8.90;3.10;;;11.00;94.90;;;9.17;66.98;99864.41;10374877;28;96799;-78
2022/01/03 16:03:20;;;;;;;11.90;4.60;;;10.90;95.00;;;9.19;68.44;99865.06;10370387;28;98235;-77
2022/01/03 16:08:24;;;;;;;12.83;5.17;;;10.90;96.30;;;9.11;70.86;99835.91;10396153;28;98438;-79
2022/01/03 16:13:28;;;;;;;7.17;2.80;;;10.90;98.70;;;8.93;71.79;99840.56;10393297;28;97122;-78
2022/01/03 16:18:35;;;;;;;4.77;1.87;;;10.70;98.80;;;8.68;72.74;99837.91;10395827;28;97228;-78
2022/01/03 16:23:38;;;;;;;4.80;2.40;;;10.50;99.50;;;8.51;72.87;99850.28;10386416;28;96935;-78
2022/01/03 16:28:41;;;;;;;7.73;3.57;;;10.40;99.90;;;8.36;73.41;99849.28;10378634;28;98989;-77
2022/01/03 16:33:44;;;;;;;3.53;1.47;;;10.30;99.90;;;8.25;73.25;99850.38;10387396;28;98097;-78
2022/01/03 16:38:52;;;;;;;3.50;1.60;;;10.20;99.90;;;8.10;73.54;99862.56;10383592;28;97222;-79
2022/01/03 16:43:55;;;;;;;8.30;2.90;;;10.00;99.90;;;7.90;74.52;99875.22;10383124;28;98591;-78
2022/01/03 16:48:59;;;;;;;10.03;3.80;;;9.90;99.90;;;7.73;74.97;99869.00;10390236;28;97228;-78
2022/01/03 16:54:02;;;;;;;6.03;2.90;;;9.80;99.90;;;7.75;75.09;99880.28;10384032;28;98720;-78
2022/01/03 16:59:05;;;;;;;9.40;4.53;;;9.70;99.90;;;7.72;75.01;99870.00;10383446;28;99467;-77
2022/01/03 17:04:08;;;;;;;16.10;7.87;;;9.70;99.90;;;7.66;75.42;99877.72;10382899;28;98396;-77
2022/01/03 17:09:11;;;;;;;14.83;8.03;;;9.60;99.90;;;7.61;75.88;99885.31;10392543;28;96788;-78
2022/01/03 17:14:18;;;;;;;23.00;10.80;;;9.60;99.90;;;7.48;75.97;99891.00;10373973;28;98570;-78
2022/01/03 17:19:22;;;;;;;27.17;14.40;;;9.40;99.90;;;7.31;76.46;99889.25;10374439;28;97056;-78
2022/01/03 17:24:25;;;;;;;32.37;16.10;;;9.30;99.90;;;7.10;77.01;99874.56;10400147;28;96662;-77
2022/01/03 17:29:28;;;;;;;47.97;19.77;;;9.10;99.90;;;6.88;77.91;99883.78;10379305;28;96526;-78
2022/01/03 17:34:31;;;;;;;32.00;14.17;;;8.90;99.90;;;6.71;78.58;99880.16;10396372;28;96534;-77
2022/01/03 17:39:37;;;;;;;21.53;11.17;;;8.80;99.90;;;6.60;79.29;99898.88;10407154;28;96812;-77
2022/01/03 17:44:40;;;;;;;9.10;4.83;;;8.70;99.90;;;6.59;79.92;99899.84;10390426;28;97628;-78
2022/01/03 17:49:42;;;;;;;7.73;3.60;;;8.60;99.90;;;6.76;79.83;99895.56;10391088;27;96616;-77
2022/01/03 17:54:49;;;;;;;5.50;2.37;;;8.70;99.90;;;6.96;79.57;99883.88;10395343;28;97059;-77
2022/01/03 17:59:52;;;;;;;6.17;2.50;;;8.80;99.90;;;7.13;79.42;99879.53;10396368;28;96582;-77
2022/01/03 18:04:55;;;;;;;3.97;1.77;;;8.90;99.90;;;7.31;78.46;99879.50;10397055;28;97893;-76
2022/01/03 18:09:58;;;;;;;3.83;1.50;;;9.10;99.90;;;7.59;76.67;99866.13;10390522;28;98711;-77
2022/01/03 18:15:04;;;;;;;2.47;1.20;;;9.30;99.90;;;7.85;74.74;99860.78;10383874;28;96788;-77
2022/01/03 18:20:08;;;;;;;3.47;1.77;;;9.50;99.90;;;8.08;73.15;99866.34;10394641;28;98624;-76
2022/01/03 18:25:14;;;;;;;4.63;1.80;;;9.80;99.90;;;8.33;70.49;99860.13;10385765;28;96945;-77
2022/01/03 18:30:20;;;;;;;5.20;2.10;;;10.00;99.90;;;8.53;68.51;99861.56;10401167;28;96927;-77
2022/01/03 18:35:23;;;;;;;4.00;1.43;;;10.20;99.90;;;8.69;66.87;99855.44;10366150;28;96570;-77
2022/01/03 18:40:25;;;;;;;3.00;1.30;;;10.40;99.90;;;8.76;66.55;99845.88;10400913;27;99523;-77
2022/01/03 18:45:29;;;;;;;4.70;1.00;;;10.50;99.90;;;8.86;65.36;99850.97;10379905;28;98568;-77
2022/01/03 18:50:34;;;;;;;1.87;0.70;;;10.60;99.40;;;9.00;64.32;99868.06;10390626;28;96808;-77
2022/01/03 18:55:37;;;;;;;4.13;0.80;;;10.60;98.30;;;9.08;64.09;99868.06;10363231;28;99733;-77
2022/01/03 19:00:42;;;;;;;3.10;0.80;;;10.80;98.00;;;9.04;65.43;99870.19;10383725;28;98356;-77
2022/01/03 19:05:45;;;;;;;3.90;1.00;;;10.80;98.20;;;9.06;66.91;99873.53;10380134;28;98331;-77
2022/01/03 19:10:50;;;;;;;4.30;1.80;;;10.80;98.90;;;9.08;67.83;99876.84;10387232;28;96575;-77
2022/01/03 19:15:53;;;;;;;6.57;1.77;;;10.80;99.60;;;9.13;68.06;99888.78;10386144;28;96949;-78
2022/01/03 19:20:56;;;;;;;6.20;1.80;;;10.80;99.90;;;9.12;68.69;99887.94;10385733;28;97110;-77
2022/01/03 19:26:03;;;;;;;3.90;1.90;;;10.80;99.90;;;9.04;69.25;99886.09;10384091;28;98961;-77
2022/01/03 19:31:06;;;;;;;3.70;1.63;;;10.80;99.90;;;8.93;69.53;99888.25;10387206;28;96939;-77
2022/01/03 19:41:30;;;;;;;4.38;1.40;;;10.70;99.90;;;8.77;70.58;99871.38;10378948;28;99432;-77
2022/01/03 19:46:35;;;;;;;2.37;1.23;;;10.60;99.90;;;8.73;71.03;99866.53;10382934;28;98592;-77
2022/01/03 19:51:40;;;;;;;3.10;1.40;;;10.50;99.90;;;8.64;71.59;99865.72;10383372;28;97116;-77
2022/01/03 19:56:44;;;;;;;4.27;1.63;;;10.40;99.90;;;8.54;72.09;99863.22;10382040;28;96593;-78
2022/01/03 20:01:48;;;;;;;5.20;1.57;;;10.40;99.90;;;8.46;72.61;99857.91;10374053;27;96690;-82
2022/01/03 20:06:51;;;;;;;2.57;1.30;;;10.30;99.90;;;8.37;73.00;99850.09;10382631;28;96842;-79
2022/01/03 20:11:54;;;;;;;2.50;1.00;;;10.20;99.90;;;8.26;73.64;99848.53;10388422;28;96770;-80
2022/01/03 20:17:00;;;;;;;3.43;1.30;;;10.20;99.90;;;8.17;74.65;99831.00;10378961;28;98610;-79
2022/01/03 20:22:06;;;;;;;3.90;1.20;;;10.00;99.90;;;8.14;75.09;99829.50;10355353;28;97021;-80
2022/01/03 20:27:10;;;;;;;3.00;0.83;;;10.00;99.90;;;8.19;74.61;99842.25;10377629;27;97652;-79
2022/01/03 20:32:13;;;;;;;2.03;0.80;;;10.00;99.90;;;8.29;74.32;99833.19;10388508;27;97194;-79
2022/01/03 20:37:17;;;;;;;3.60;1.10;;;10.00;99.90;;;8.41;74.17;99831.09;10381343;28;98593;-80
2022/01/03 20:42:20;;;;;;;3.80;1.17;;;10.10;99.90;;;8.50;73.99;99838.03;10390314;28;97398;-78
2022/01/03 20:47:23;;;;;;;4.40;0.90;;;10.20;99.90;;;8.53;73.54;99836.91;10390672;28;96833;-79
2022/01/03 20:52:27;;;;;;;3.90;0.97;;;10.20;99.90;;;8.54;73.19;99827.97;10400240;28;96919;-79
2022/01/03 20:57:33;;;;;;;3.53;0.93;;;10.20;99.90;;;8.49;72.97;99828.44;10397977;28;97050;-79
2022/01/03 21:02:43;;;;;;;4.73;1.63;;;10.20;99.90;;;8.53;72.44;99827.13;10386484;28;97664;-80
2022/01/03 21:07:47;;;;;;;3.00;1.00;;;10.20;99.90;;;8.49;72.49;99817.03;10399035;28;97871;-80
2022/01/03 21:12:51;;;;;;;5.83;2.83;;;10.20;99.90;;;8.39;72.71;99821.63;10391931;28;98344;-80
2022/01/03 21:17:54;;;;;;;3.87;1.57;;;10.20;99.90;;;8.33;72.92;99838.97;10380223;28;96728;-80
2022/01/03 21:22:58;;;;;;;6.57;2.50;;;10.10;99.90;;;8.30;73.64;99850.72;10384345;28;98592;-82
2022/01/03 21:28:03;;;;;;;5.67;2.90;;;10.10;99.90;;;8.40;73.73;99863.03;10395179;28;96659;-80
2022/01/03 21:33:10;;;;;;;3.50;1.30;;;10.10;99.90;;;8.46;73.99;99852.63;10395038;28;97111;-80
2022/01/03 21:38:14;;;;;;;5.37;1.07;;;10.10;99.90;;;8.45;75.41;99863.34;10398821;28;97290;-80
2022/01/03 21:43:23;;;;;;;3.30;1.00;;;10.10;99.90;;;8.34;76.78;99875.06;10396238;28;96630;-80